Time;durP1;ratioP1;P1;durP2;ratioP2;P2;SDS_P1;SDS_P2;PMS_P1;PMS_P2;Temp;Humidity;BMP_temperature;BMP_pressure;BME280_temperature;BME280_humidity;BME280_pressure;Samples;Min_cycle;Max_cycle;Signal;HPM_P1;HPM_P2
2024/03/11 00:00:58;;;;;;;20.63;10.40;;;;;;;;;;5011116;28;20053;-80
2024/03/11 00:03:27;;;;;;;19.52;10.43;;;;;;;;;;5006821;28;20031;-79
2024/03/11 00:05:53;;;;;;;18.70;10.10;;;;;;;;;;4973450;28;20049;-80
2024/03/11 00:08:21;;;;;;;17.65;9.73;;;;;;;;;;4986310;28;20529;-80
2024/03/11 00:10:48;;;;;;;17.90;10.77;;;;;;;;;;5000873;28;20037;-80
2024/03/11 00:13:17;;;;;;;16.95;9.52;;;;;;;;;;4982473;28;20494;-80
2024/03/11 00:15:44;;;;;;;17.60;9.93;;;;;;;;;;5003320;28;20025;-81
2024/03/11 00:18:10;;;;;;;21.38;10.02;;;;;;;;;;4989968;28;20045;-80
2024/03/11 00:20:36;;;;;;;17.27;9.68;;;;;;;;;;4983262;28;20042;-79
2024/03/11 00:23:03;;;;;;;17.75;9.85;;;;;;;;;;4973349;28;20109;-81
2024/03/11 00:25:31;;;;;;;17.00;9.20;;;;;;;;;;4987483;28;20041;-80
2024/03/11 00:27:57;;;;;;;18.88;9.98;;;;;;;;;;4999401;28;20087;-81
2024/03/11 00:30:24;;;;;;;19.13;9.93;;;;;;;;;;4999997;28;20064;-78
2024/03/11 00:32:52;;;;;;;17.30;9.60;;;;;;;;;;4983147;28;20042;-79
2024/03/11 00:35:18;;;;;;;16.02;9.27;;;;;;;;;;4975407;28;20041;-79
2024/03/11 00:37:45;;;;;;;18.98;9.95;;;;;;;;;;4970200;28;20025;-80
2024/03/11 00:40:11;;;;;;;18.15;9.88;;;;;;;;;;5003262;28;20062;-81
2024/03/11 00:42:39;;;;;;;16.70;9.48;;;;;;;;;;4992670;28;20062;-79
2024/03/11 00:45:11;;;;;;;17.67;9.63;;;;;;;;;;4981873;28;20034;-80
2024/03/11 00:47:39;;;;;;;14.95;8.75;;;;;;;;;;4975731;28;20482;-80
2024/03/11 00:50:07;;;;;;;17.93;10.17;;;;;;;;;;4964815;28;20122;-80
2024/03/11 00:52:34;;;;;;;18.77;10.45;;;;;;;;;;4984926;28;20331;-78
2024/03/11 00:55:00;;;;;;;20.15;10.80;;;;;;;;;;4984671;28;20065;-80
2024/03/11 00:57:27;;;;;;;15.95;8.90;;;;;;;;;;4999756;28;20030;-80
2024/03/11 00:59:54;;;;;;;18.77;9.38;;;;;;;;;;4992063;28;20474;-80
2024/03/11 01:02:24;;;;;;;18.07;9.97;;;;;;;;;;4984822;28;20057;-80
2024/03/11 01:04:52;;;;;;;19.08;10.20;;;;;;;;;;5013798;28;20548;-79
2024/03/11 01:07:19;;;;;;;21.58;9.82;;;;;;;;;;4976811;28;20050;-79
2024/03/11 01:09:47;;;;;;;17.00;9.48;;;;;;;;;;4985199;28;20536;-80
2024/03/11 01:12:12;;;;;;;17.52;10.18;;;;;;;;;;4969539;28;20034;-80
2024/03/11 01:14:38;;;;;;;19.23;10.35;;;;;;;;;;4987716;28;20046;-81
2024/03/11 01:17:04;;;;;;;18.25;9.98;;;;;;;;;;4975862;28;20030;-80
2024/03/11 01:19:31;;;;;;;16.52;9.93;;;;;;;;;;4995586;28;20466;-80
2024/03/11 01:21:58;;;;;;;20.98;10.60;;;;;;;;;;4989053;28;20030;-80
2024/03/11 01:24:24;;;;;;;18.88;10.18;;;;;;;;;;4971596;28;20061;-79
2024/03/11 01:26:49;;;;;;;20.20;10.35;;;;;;;;;;5010826;28;20042;-80
2024/03/11 01:29:15;;;;;;;20.40;10.25;;;;;;;;;;4996597;28;20038;-80
2024/03/11 01:31:42;;;;;;;24.27;11.55;;;;;;;;;;5014785;28;20042;-80
2024/03/11 01:34:09;;;;;;;20.65;11.00;;;;;;;;;;5014663;28;20089;-80
2024/03/11 01:36:36;;;;;;;24.10;9.73;;;;;;;;;;4992382;28;20033;-80
2024/03/11 01:39:08;;;;;;;19.10;10.10;;;;;;;;;;4996555;28;20026;-80
2024/03/11 01:41:36;;;;;;;19.92;10.68;;;;;;;;;;5036661;28;20042;-80
2024/03/11 01:44:01;;;;;;;23.40;10.77;;;;;;;;;;5024075;28;20116;-80
2024/03/11 01:46:27;;;;;;;19.65;10.65;;;;;;;;;;5010129;28;20112;-80
2024/03/11 01:48:53;;;;;;;22.52;11.60;;;;;;;;;;4981015;28;20034;-79
2024/03/11 01:51:21;;;;;;;19.38;11.43;;;;;;;;;;4978671;28;20369;-79
2024/03/11 01:53:47;;;;;;;23.75;11.38;;;;;;;;;;4985643;28;20030;-79
2024/03/11 01:56:14;;;;;;;19.05;11.15;;;;;;;;;;4985622;28;20397;-79
2024/03/11 01:58:41;;;;;;;18.75;11.43;;;;;;;;;;5003994;28;20061;-80
2024/03/11 02:01:07;;;;;;;21.88;11.98;;;;;;;;;;4989354;28;20022;-78
2024/03/11 02:03:33;;;;;;;23.85;12.60;;;;;;;;;;4980874;28;20030;-80
2024/03/11 02:05:59;;;;;;;21.70;11.80;;;;;;;;;;5002667;28;20053;-81
2024/03/11 02:08:25;;;;;;;22.23;12.13;;;;;;;;;;4972914;28;20053;-80
2024/03/11 02:10:51;;;;;;;26.38;12.27;;;;;;;;;;4987341;28;20038;-80
2024/03/11 02:13:18;;;;;;;20.25;11.90;;;;;;;;;;4987842;28;20045;-80
2024/03/11 02:15:44;;;;;;;23.75;12.80;;;;;;;;;;4980488;28;20069;-81
2024/03/11 02:18:09;;;;;;;24.08;12.07;;;;;;;;;;4979699;28;20031;-80
2024/03/11 02:20:39;;;;;;;18.77;12.02;;;;;;;;;;4986306;28;20192;-79
2024/03/11 02:23:05;;;;;;;21.55;12.50;;;;;;;;;;4984331;28;20034;-79
2024/03/11 02:25:31;;;;;;;23.38;12.40;;;;;;;;;;5006464;28;20058;-79
2024/03/11 02:27:58;;;;;;;21.60;12.15;;;;;;;;;;4995017;28;20041;-80
2024/03/11 02:30:23;;;;;;;21.77;12.32;;;;;;;;;;4998550;28;20064;-79
2024/03/11 02:32:49;;;;;;;21.40;12.50;;;;;;;;;;4978715;28;20502;-80
2024/03/11 02:35:18;;;;;;;20.02;12.30;;;;;;;;;;4993090;28;20512;-79
2024/03/11 02:37:44;;;;;;;23.25;12.20;;;;;;;;;;4990150;28;20045;-80
2024/03/11 02:40:10;;;;;;;21.35;12.38;;;;;;;;;;5019425;28;20041;-80
2024/03/11 02:42:36;;;;;;;25.02;13.15;;;;;;;;;;5012192;28;20094;-79
2024/03/11 02:45:06;;;;;;;20.15;12.85;;;;;;;;;;5003684;28;20113;-79
2024/03/11 02:47:35;;;;;;;23.27;13.70;;;;;;;;;;4987397;28;20026;-80
2024/03/11 02:50:01;;;;;;;27.42;13.85;;;;;;;;;;4989222;28;20045;-80
2024/03/11 02:52:27;;;;;;;21.33;12.38;;;;;;;;;;4981303;28;20030;-79
2024/03/11 02:54:53;;;;;;;24.90;13.10;;;;;;;;;;5020228;28;20026;-80
2024/03/11 02:57:22;;;;;;;21.95;14.05;;;;;;;;;;4984638;28;20076;-80
2024/03/11 02:59:50;;;;;;;21.60;12.98;;;;;;;;;;4984812;28;20456;-80
2024/03/11 03:02:16;;;;;;;22.92;12.38;;;;;;;;;;4992158;28;20034;-80
2024/03/11 03:04:41;;;;;;;20.80;12.85;;;;;;;;;;4974318;28;20077;-79
2024/03/11 03:07:08;;;;;;;24.33;13.43;;;;;;;;;;5007556;28;20038;-79
2024/03/11 03:09:36;;;;;;;24.58;13.18;;;;;;;;;;5015602;28;20036;-80
2024/03/11 03:12:12;;;;;;;29.63;14.27;;;;;;;;;;4979428;28;20030;-80
2024/03/11 03:14:38;;;;;;;28.90;14.75;;;;;;;;;;4957779;28;20027;-79
2024/03/11 03:17:04;;;;;;;27.30;14.75;;;;;;;;;;4979779;28;20092;-79
2024/03/11 03:19:30;;;;;;;25.85;13.90;;;;;;;;;;4969906;28;20038;-80
2024/03/11 03:21:56;;;;;;;28.38;14.40;;;;;;;;;;4967770;28;20125;-80
2024/03/11 03:24:21;;;;;;;28.38;15.25;;;;;;;;;;4972440;28;20118;-80
2024/03/11 03:26:47;;;;;;;31.25;15.13;;;;;;;;;;4969709;28;20026;-79
2024/03/11 03:29:13;;;;;;;28.30;15.98;;;;;;;;;;4994215;28;20398;-80
2024/03/11 03:31:38;;;;;;;25.48;14.23;;;;;;;;;;4969875;28;20041;-80
2024/03/11 03:34:09;;;;;;;29.10;16.08;;;;;;;;;;4978701;28;20493;-79
2024/03/11 03:36:35;;;;;;;27.83;15.48;;;;;;;;;;4969039;28;20455;-80
2024/03/11 03:39:03;;;;;;;27.75;16.17;;;;;;;;;;4987656;28;20037;-79
2024/03/11 03:41:29;;;;;;;33.60;15.30;;;;;;;;;;4992907;28;20041;-79
2024/03/11 03:43:54;;;;;;;29.88;15.05;;;;;;;;;;5005569;28;20118;-81
2024/03/11 03:46:20;;;;;;;28.23;15.65;;;;;;;;;;4990222;28;20065;-78
2024/03/11 03:48:48;;;;;;;28.75;16.20;;;;;;;;;;5000921;28;20037;-79
2024/03/11 03:51:18;;;;;;;27.75;15.98;;;;;;;;;;4982575;28;20034;-81
2024/03/11 03:53:46;;;;;;;31.08;17.20;;;;;;;;;;4991959;28;20034;-80
2024/03/11 03:56:12;;;;;;;32.58;16.77;;;;;;;;;;5002121;28;20030;-80
2024/03/11 03:58:37;;;;;;;34.53;17.10;;;;;;;;;;4986688;28;20038;-80
2024/03/11 04:01:03;;;;;;;34.28;16.30;;;;;;;;;;5013724;28;20034;-80
2024/03/11 04:03:29;;;;;;;30.35;17.27;;;;;;;;;;5008638;28;20050;-79
2024/03/11 04:05:55;;;;;;;29.85;16.15;;;;;;;;;;4983563;28;20029;-80
2024/03/11 04:08:23;;;;;;;29.08;16.65;;;;;;;;;;5002882;28;20073;-79
2024/03/11 04:10:49;;;;;;;29.40;17.13;;;;;;;;;;4994841;28;20103;-81
2024/03/11 04:13:15;;;;;;;32.33;17.00;;;;;;;;;;4994620;28;20144;-79
2024/03/11 04:15:42;;;;;;;34.35;17.63;;;;;;;;;;5010180;28;20453;-79
2024/03/11 04:18:10;;;;;;;34.92;16.90;;;;;;;;;;4999730;28;20034;-80
2024/03/11 04:20:39;;;;;;;33.22;17.80;;;;;;;;;;5003616;28;20034;-80
2024/03/11 04:23:09;;;;;;;35.75;18.60;;;;;;;;;;4988464;28;20026;-80
2024/03/11 04:25:37;;;;;;;33.45;17.65;;;;;;;;;;4969820;28;20519;-79
2024/03/11 04:28:03;;;;;;;34.28;19.27;;;;;;;;;;4992606;28;20019;-81
2024/03/11 04:30:30;;;;;;;30.73;17.25;;;;;;;;;;4994104;28;20042;-80
2024/03/11 04:32:55;;;;;;;34.10;18.77;;;;;;;;;;5003317;28;20030;-80
2024/03/11 04:35:24;;;;;;;30.15;17.77;;;;;;;;;;5004921;28;20035;-80
2024/03/11 04:37:50;;;;;;;;;;;;;;;;;;5018446;28;20111;-80
2024/03/11 04:40:16;;;;;;;28.80;17.20;;;;;;;;;;4989131;28;19929;-80
2024/03/11 04:42:42;;;;;;;30.70;17.73;;;;;;;;;;4990829;28;20104;-79
2024/03/11 04:45:09;;;;;;;29.33;16.70;;;;;;;;;;4998090;28;20549;-80
2024/03/11 04:47:34;;;;;;;31.52;18.13;;;;;;;;;;4965100;28;20037;-79
2024/03/11 04:50:00;;;;;;;27.90;17.33;;;;;;;;;;4972043;28;20038;-80
2024/03/11 04:52:26;;;;;;;29.77;17.77;;;;;;;;;;4998246;28;20037;-80
2024/03/11 04:54:55;;;;;;;29.55;17.88;;;;;;;;;;5032452;28;20053;-79
2024/03/11 04:57:24;;;;;;;28.02;15.82;;;;;;;;;;5027310;28;20044;-80
2024/03/11 04:59:52;;;;;;;27.80;17.25;;;;;;;;;;5024452;28;20038;-80
2024/03/11 05:02:17;;;;;;;30.30;16.73;;;;;;;;;;4999182;28;20022;-79
2024/03/11 05:04:43;;;;;;;28.90;17.35;;;;;;;;;;5016089;28;20026;-79
2024/03/11 05:07:15;;;;;;;32.63;16.35;;;;;;;;;;4962931;28;20049;-79
2024/03/11 05:09:47;;;;;;;27.92;16.08;;;;;;;;;;4998222;28;20034;-80
2024/03/11 05:12:14;;;;;;;29.10;16.23;;;;;;;;;;5003333;28;20090;-80
2024/03/11 05:14:42;;;;;;;27.52;16.02;;;;;;;;;;4984896;28;20509;-79
2024/03/11 05:17:07;;;;;;;28.85;16.63;;;;;;;;;;4989398;28;20121;-80
2024/03/11 05:19:33;;;;;;;28.55;17.05;;;;;;;;;;5002015;28;20117;-80
2024/03/11 05:22:07;;;;;;;28.70;17.17;;;;;;;;;;5002681;28;20038;-81
2024/03/11 05:24:38;;;;;;;27.90;16.55;;;;;;;;;;4987090;28;20347;-79
2024/03/11 05:27:11;;;;;;;25.42;15.35;;;;;;;;;;5001561;28;20066;-81
2024/03/11 05:29:39;;;;;;;27.77;16.33;;;;;;;;;;5007339;28;20042;-80
2024/03/11 05:32:05;;;;;;;28.85;17.05;;;;;;;;;;5011928;28;20053;-79
2024/03/11 05:34:33;;;;;;;28.13;16.35;;;;;;;;;;4995839;28;20030;-81
2024/03/11 05:37:00;;;;;;;26.10;16.33;;;;;;;;;;4998152;28;20054;-79
2024/03/11 05:39:25;;;;;;;25.85;15.00;;;;;;;;;;4997234;28;20492;-81
2024/03/11 05:41:53;;;;;;;26.35;15.50;;;;;;;;;;5005892;28;20473;-81
2024/03/11 05:44:21;;;;;;;26.02;16.48;;;;;;;;;;4999773;28;20478;-79
2024/03/11 05:46:51;;;;;;;24.42;15.13;;;;;;;;;;4979337;28;20637;-80
2024/03/11 05:49:17;;;;;;;28.15;16.00;;;;;;;;;;5003953;28;20034;-81
2024/03/11 05:51:44;;;;;;;25.08;15.93;;;;;;;;;;4966909;28;20038;-79
2024/03/11 05:54:19;;;;;;;28.95;16.02;;;;;;;;;;5000004;28;20057;-79
2024/03/11 05:56:54;;;;;;;27.67;16.48;;;;;;;;;;4997082;28;20076;-81
2024/03/11 05:59:23;;;;;;;31.17;17.30;;;;;;;;;;4998670;28;20030;-81
2024/03/11 06:01:53;;;;;;;34.38;17.42;;;;;;;;;;5012957;28;20042;-80
2024/03/11 06:04:18;;;;;;;27.40;16.20;;;;;;;;;;5011160;28;20033;-79
2024/03/11 06:06:46;;;;;;;30.30;16.95;;;;;;;;;;5010181;28;20084;-78
2024/03/11 06:09:14;;;;;;;24.77;15.77;;;;;;;;;;5010850;28;20037;-80
2024/03/11 06:11:41;;;;;;;27.08;15.73;;;;;;;;;;4991469;28;20640;-80
2024/03/11 06:14:07;;;;;;;29.48;17.00;;;;;;;;;;4999134;28;20393;-79
2024/03/11 06:16:33;;;;;;;28.95;16.27;;;;;;;;;;5014270;28;20088;-79
2024/03/11 06:19:00;;;;;;;28.10;16.10;;;;;;;;;;4983423;28;20048;-80
2024/03/11 06:21:32;;;;;;;28.02;16.65;;;;;;;;;;4984416;28;20053;-81
2024/03/11 06:23:59;;;;;;;26.03;16.23;;;;;;;;;;5008157;28;20059;-81
2024/03/11 06:26:26;;;;;;;27.95;16.40;;;;;;;;;;4990933;28;20358;-80
2024/03/11 06:28:52;;;;;;;26.85;15.98;;;;;;;;;;4973276;28;20038;-81
2024/03/11 06:31:17;;;;;;;28.33;15.63;;;;;;;;;;4978844;28;20031;-80
2024/03/11 06:33:43;;;;;;;25.85;15.68;;;;;;;;;;4972212;28;20516;-80
2024/03/11 06:36:09;;;;;;;24.90;14.90;;;;;;;;;;4959928;28;20047;-81
2024/03/11 06:38:37;;;;;;;26.60;16.00;;;;;;;;;;5004967;28;20046;-81
2024/03/11 06:41:03;;;;;;;23.10;14.07;;;;;;;;;;4981381;28;20112;-81
2024/03/11 06:43:35;;;;;;;27.33;15.77;;;;;;;;;;4997253;28;20485;-81
2024/03/11 06:46:10;;;;;;;21.63;13.55;;;;;;;;;;5000206;28;20501;-79
2024/03/11 06:48:37;;;;;;;27.30;14.60;;;;;;;;;;4997051;28;20030;-79
2024/03/11 06:51:10;;;;;;;24.85;14.32;;;;;;;;;;4973804;28;20062;-79
2024/03/11 06:53:39;;;;;;;22.95;12.88;;;;;;;;;;5004643;28;20399;-79
2024/03/11 06:56:11;;;;;;;23.63;13.43;;;;;;;;;;4998929;28;20096;-79
2024/03/11 06:58:39;;;;;;;22.48;12.65;;;;;;;;;;4997413;28;20045;-80
2024/03/11 07:01:11;;;;;;;22.70;13.52;;;;;;;;;;4995681;28;20437;-79
2024/03/11 07:03:37;;;;;;;23.35;13.55;;;;;;;;;;5003888;28;20108;-81
2024/03/11 07:06:03;;;;;;;22.45;13.18;;;;;;;;;;4985431;28;20022;-80
2024/03/11 07:08:30;;;;;;;24.15;12.32;;;;;;;;;;4998241;28;20393;-79
2024/03/11 07:11:00;;;;;;;22.40;12.55;;;;;;;;;;4979428;28;20045;-81
2024/03/11 07:13:29;;;;;;;20.45;10.70;;;;;;;;;;4979862;28;20045;-79
2024/03/11 07:15:57;;;;;;;18.95;11.20;;;;;;;;;;5011896;28;20029;-80
2024/03/11 07:18:24;;;;;;;17.77;10.88;;;;;;;;;;4974613;28;20117;-79
2024/03/11 07:20:52;;;;;;;20.48;10.18;;;;;;;;;;4967164;28;20116;-79
2024/03/11 07:23:18;;;;;;;17.08;10.02;;;;;;;;;;5007220;28;20022;-78
2024/03/11 07:26:10;;;;;;;19.33;9.10;;;;;;;;;;5012076;28;20057;-80
2024/03/11 07:28:36;;;;;;;16.35;9.52;;;;;;;;;;4982528;28;20014;-80
2024/03/11 07:31:04;;;;;;;13.63;8.25;;;;;;;;;;5018276;28;20025;-81
2024/03/11 07:33:32;;;;;;;13.30;7.65;;;;;;;;;;5018727;28;20022;-82
2024/03/11 07:36:07;;;;;;;13.98;8.43;;;;;;;;;;5017478;28;20101;-80
2024/03/11 07:38:37;;;;;;;16.98;9.02;;;;;;;;;;5019017;28;20026;-80
2024/03/11 07:41:06;;;;;;;15.43;7.57;;;;;;;;;;5020360;28;20060;-80
2024/03/11 07:43:32;;;;;;;13.02;7.78;;;;;;;;;;4991966;28;20049;-79
2024/03/11 07:45:59;;;;;;;12.23;7.22;;;;;;;;;;5013779;28;20038;-79
2024/03/11 07:48:25;;;;;;;11.35;6.53;;;;;;;;;;4982260;28;20041;-80
2024/03/11 07:50:50;;;;;;;9.20;6.18;;;;;;;;;;4994123;28;20440;-80
2024/03/11 07:53:18;;;;;;;10.32;6.03;;;;;;;;;;5006318;28;20034;-80
2024/03/11 07:55:51;;;;;;;8.30;5.47;;;;;;;;;;4994353;28;20092;-80
2024/03/11 07:58:22;;;;;;;10.52;5.30;;;;;;;;;;4981167;28;20097;-79
2024/03/11 08:00:47;;;;;;;13.25;5.22;;;;;;;;;;4986735;28;20030;-81
2024/03/11 08:03:14;;;;;;;11.73;4.65;;;;;;;;;;4980875;28;20049;-80
2024/03/11 08:05:40;;;;;;;7.00;3.90;;;;;;;;;;4995858;28;20044;-79
2024/03/11 08:08:08;;;;;;;8.32;4.30;;;;;;;;;;4985928;28;20487;-80
2024/03/11 08:10:35;;;;;;;7.88;4.25;;;;;;;;;;4961426;28;20046;-80
2024/03/11 08:13:08;;;;;;;5.85;3.50;;;;;;;;;;4977084;28;20089;-78
2024/03/11 08:15:39;;;;;;;6.28;3.58;;;;;;;;;;4978670;28;20033;-79
2024/03/11 08:18:06;;;;;;;5.27;2.80;;;;;;;;;;4977959;28;20038;-78
2024/03/11 08:20:35;;;;;;;4.53;2.70;;;;;;;;;;4976513;28;20037;-80
2024/03/11 08:23:03;;;;;;;4.93;2.63;;;;;;;;;;4997397;28;20029;-80
2024/03/11 08:25:31;;;;;;;4.95;2.70;;;;;;;;;;4996116;28;20062;-79
2024/03/11 08:27:57;;;;;;;4.00;1.95;;;;;;;;;;4976890;28;20109;-79
2024/03/11 08:30:30;;;;;;;5.53;1.60;;;;;;;;;;4985588;28;20119;-79
2024/03/11 08:32:56;;;;;;;2.50;1.33;;;;;;;;;;4963136;28;20034;-80
2024/03/11 08:35:24;;;;;;;2.78;1.40;;;;;;;;;;4968963;28;20038;-79
2024/03/11 08:37:52;;;;;;;2.78;1.30;;;;;;;;;;5002974;28;20041;-80
2024/03/11 08:40:19;;;;;;;1.73;1.13;;;;;;;;;;4972506;28;20049;-79
2024/03/11 08:42:50;;;;;;;2.38;1.30;;;;;;;;;;4997939;28;20045;-80
2024/03/11 08:45:23;;;;;;;3.65;1.27;;;;;;;;;;4973478;28;20026;-80
2024/03/11 08:47:49;;;;;;;3.13;1.33;;;;;;;;;;5003443;28;20026;-82
2024/03/11 08:50:16;;;;;;;3.22;1.50;;;;;;;;;;5006645;28;20033;-79
2024/03/11 08:52:45;;;;;;;3.90;1.70;;;;;;;;;;4993411;28;20322;-79
2024/03/11 08:55:14;;;;;;;3.42;2.05;;;;;;;;;;4973551;28;20389;-80
2024/03/11 08:57:45;;;;;;;2.97;1.50;;;;;;;;;;4971728;28;20382;-80
2024/03/11 09:00:11;;;;;;;4.40;1.88;;;;;;;;;;4988200;28;20049;-80
2024/03/11 09:02:41;;;;;;;3.33;1.70;;;;;;;;;;4970977;28;20022;-80
2024/03/11 09:05:12;;;;;;;3.95;1.85;;;;;;;;;;4977284;28;20516;-79
2024/03/11 09:07:40;;;;;;;6.07;2.33;;;;;;;;;;5001473;28;20049;-80
2024/03/11 09:10:07;;;;;;;5.32;2.10;;;;;;;;;;4992827;28;20037;-80
2024/03/11 09:12:34;;;;;;;4.10;2.40;;;;;;;;;;4978612;28;20071;-79
2024/03/11 09:15:00;;;;;;;4.75;2.15;;;;;;;;;;5008146;28;20128;-79
2024/03/11 09:17:26;;;;;;;3.72;1.98;;;;;;;;;;4979596;28;20059;-80
2024/03/11 09:19:54;;;;;;;4.82;2.03;;;;;;;;;;4976591;28;20042;-79
2024/03/11 09:22:20;;;;;;;3.78;1.83;;;;;;;;;;4980707;28;20073;-80
2024/03/11 09:24:46;;;;;;;4.13;1.73;;;;;;;;;;4966508;28;20027;-79
2024/03/11 09:27:12;;;;;;;3.03;1.75;;;;;;;;;;4971349;28;20046;-79
2024/03/11 09:29:37;;;;;;;5.88;1.50;;;;;;;;;;4978459;28;20100;-79
2024/03/11 09:32:05;;;;;;;3.15;1.45;;;;;;;;;;4984817;28;20030;-80
2024/03/11 09:34:30;;;;;;;4.03;1.58;;;;;;;;;;4962212;28;20121;-80
2024/03/11 09:36:56;;;;;;;2.60;1.33;;;;;;;;;;4976650;28;20069;-81
2024/03/11 09:39:22;;;;;;;2.72;1.20;;;;;;;;;;4993707;28;20047;-80
2024/03/11 09:41:54;;;;;;;2.97;1.10;;;;;;;;;;5004014;28;20091;-80
2024/03/11 09:44:20;;;;;;;3.40;1.40;;;;;;;;;;4982937;28;20038;-80
2024/03/11 09:46:50;;;;;;;2.40;1.25;;;;;;;;;;4993452;28;20034;-79
2024/03/11 09:49:19;;;;;;;7.38;1.85;;;;;;;;;;4968964;28;20021;-80
2024/03/11 09:51:48;;;;;;;7.03;1.40;;;;;;;;;;4987265;28;20065;-79
2024/03/11 09:54:16;;;;;;;2.70;1.20;;;;;;;;;;4997543;28;20027;-80
2024/03/11 09:56:47;;;;;;;1.77;1.20;;;;;;;;;;5003412;28;20039;-80
2024/03/11 09:59:24;;;;;;;1.95;1.10;;;;;;;;;;4982193;28;20125;-79
2024/03/11 10:01:54;;;;;;;3.08;0.93;;;;;;;;;;4976900;28;20485;-79
2024/03/11 10:04:22;;;;;;;4.75;1.20;;;;;;;;;;4976994;28;20030;-80
2024/03/11 10:07:04;;;;;;;5.13;1.17;;;;;;;;;;4977682;28;20073;-79
2024/03/11 10:09:44;;;;;;;3.97;2.08;;;;;;;;;;5004974;28;20048;-79
2024/03/11 10:12:10;;;;;;;4.63;1.60;;;;;;;;;;4976444;28;20052;-80
2024/03/11 10:14:38;;;;;;;7.82;2.47;;;;;;;;;;4972798;28;20034;-80
2024/03/11 10:17:20;;;;;;;2.75;1.20;;;;;;;;;;4995856;28;20038;-80
2024/03/11 10:19:56;;;;;;;1.90;1.00;;;;;;;;;;4990256;28;20132;-80
2024/03/11 10:22:26;;;;;;;2.45;0.90;;;;;;;;;;4977456;28;20696;-80
2024/03/11 10:24:52;;;;;;;1.85;0.85;;;;;;;;;;4998644;28;20037;-78
2024/03/11 10:27:19;;;;;;;4.03;1.35;;;;;;;;;;5015208;28;20082;-79
2024/03/11 10:29:44;;;;;;;3.20;1.08;;;;;;;;;;5022768;28;20022;-79
2024/03/11 10:32:29;;;;;;;2.05;0.93;;;;;;;;;;5015263;28;20030;-80
2024/03/11 10:34:54;;;;;;;3.70;0.75;;;;;;;;;;5006437;28;20027;-80
2024/03/11 10:37:21;;;;;;;3.92;1.40;;;;;;;;;;4984653;28;20030;-80
2024/03/11 10:39:48;;;;;;;6.40;0.90;;;;;;;;;;4987265;28;20046;-79
2024/03/11 10:42:32;;;;;;;1.75;0.80;;;;;;;;;;4979296;28;20085;-80
2024/03/11 10:45:07;;;;;;;1.73;0.80;;;;;;;;;;4996031;28;20022;-80
2024/03/11 10:47:33;;;;;;;3.40;0.90;;;;;;;;;;4978376;28;20030;-80
2024/03/11 10:50:02;;;;;;;2.30;0.80;;;;;;;;;;4978552;28;20116;-79
2024/03/11 10:52:33;;;;;;;2.30;0.60;;;;;;;;;;4964067;28;20034;-80
2024/03/11 10:55:02;;;;;;;5.55;1.10;;;;;;;;;;4959326;28;20037;-78
2024/03/11 10:57:34;;;;;;;2.33;0.90;;;;;;;;;;4973248;28;20041;-80
2024/03/11 11:00:02;;;;;;;1.95;0.60;;;;;;;;;;4977626;28;20109;-79
2024/03/11 11:02:51;;;;;;;;;;;;;;;;;;;;;
2024/03/11 11:05:32;;;;;;;1.45;0.88;;;;;;;;;;4970021;28;20030;-80
2024/03/11 11:08:04;;;;;;;2.38;0.95;;;;;;;;;;4998358;28;20026;-80
2024/03/11 11:10:35;;;;;;;1.98;0.68;;;;;;;;;;4994591;28;20042;-80
2024/03/11 11:13:01;;;;;;;2.35;1.00;;;;;;;;;;4961369;28;20041;-80
2024/03/11 11:15:28;;;;;;;2.00;0.90;;;;;;;;;;4992231;28;20035;-79
2024/03/11 11:17:54;;;;;;;2.33;0.77;;;;;;;;;;4961433;28;20398;-80
2024/03/11 11:23:49;;;;;;;;;;;;;;;;;;4989436;28;20517;-80
2024/03/11 11:26:35;;;;;;;2.92;0.80;;;;;;;;;;4979935;28;19916;-80
2024/03/11 11:29:01;;;;;;;3.67;0.82;;;;;;;;;;4993129;28;20110;-79
2024/03/11 11:31:27;;;;;;;2.17;1.10;;;;;;;;;;4997795;28;20065;-79
2024/03/11 11:33:58;;;;;;;3.63;0.70;;;;;;;;;;4999355;28;20390;-78
2024/03/11 11:36:46;;;;;;;3.30;0.70;;;;;;;;;;5000920;28;20030;-80
2024/03/11 11:39:17;;;;;;;2.75;0.82;;;;;;;;;;4971702;28;20536;-80
2024/03/11 11:41:45;;;;;;;1.70;0.80;;;;;;;;;;4981576;28;20030;-80
2024/03/11 11:44:11;;;;;;;6.35;0.90;;;;;;;;;;4970115;28;20052;-80
2024/03/11 11:46:40;;;;;;;3.15;1.00;;;;;;;;;;4966582;28;20109;-81
2024/03/11 11:49:19;;;;;;;1.60;0.90;;;;;;;;;;5003804;28;20029;-78
2024/03/11 11:51:48;;;;;;;1.73;0.82;;;;;;;;;;4997082;28;20505;-80
2024/03/11 11:54:19;;;;;;;2.53;0.90;;;;;;;;;;4978734;28;20099;-79
2024/03/11 11:56:45;;;;;;;3.70;0.88;;;;;;;;;;4995987;28;20069;-79
2024/03/11 11:59:12;;;;;;;6.45;1.10;;;;;;;;;;4998969;28;20022;-80
2024/03/11 12:01:50;;;;;;;4.90;1.20;;;;;;;;;;5000850;28;20026;-79
2024/03/11 12:04:18;;;;;;;8.73;1.40;;;;;;;;;;4988102;28;21572;-79
2024/03/11 12:06:46;;;;;;;9.05;1.45;;;;;;;;;;4982363;28;20057;-80
2024/03/11 12:09:12;;;;;;;;;;;;;;;;;;4979129;28;20389;-79
2024/03/11 12:11:45;;;;;;;2.17;0.85;;;;;;;;;;4982067;28;19914;-80
2024/03/11 12:14:11;;;;;;;4.07;1.05;;;;;;;;;;4976949;28;20037;-81
2024/03/11 12:16:38;;;;;;;1.38;0.80;;;;;;;;;;4984191;28;20422;-79
2024/03/11 12:19:09;;;;;;;2.20;1.00;;;;;;;;;;4982139;28;20034;-80
2024/03/11 12:21:38;;;;;;;2.72;0.88;;;;;;;;;;4967143;28;20076;-81
2024/03/11 12:24:12;;;;;;;4.40;1.30;;;;;;;;;;4961287;28;20018;-81
2024/03/11 12:26:41;;;;;;;1.15;0.70;;;;;;;;;;5001763;28;20045;-80
2024/03/11 12:29:14;;;;;;;2.25;1.08;;;;;;;;;;4999506;28;20029;-80
2024/03/11 12:31:41;;;;;;;2.42;1.00;;;;;;;;;;5001685;28;20041;-79
2024/03/11 12:34:13;;;;;;;3.45;1.10;;;;;;;;;;4988802;28;20018;-79
2024/03/11 12:36:40;;;;;;;2.50;0.90;;;;;;;;;;4996623;28;20064;-81
2024/03/11 12:39:20;;;;;;;2.10;0.80;;;;;;;;;;4965079;28;20027;-80
2024/03/11 12:41:47;;;;;;;2.75;0.90;;;;;;;;;;4984336;28;20054;-81
2024/03/11 12:44:19;;;;;;;1.38;0.68;;;;;;;;;;4984470;28;20045;-81
2024/03/11 12:46:50;;;;;;;3.35;0.90;;;;;;;;;;4980667;28;20038;-81
2024/03/11 12:49:16;;;;;;;5.07;0.90;;;;;;;;;;4997388;28;20018;-81
2024/03/11 12:51:52;;;;;;;2.00;0.90;;;;;;;;;;4996231;28;20057;-81
2024/03/11 12:54:19;;;;;;;1.83;0.93;;;;;;;;;;4986240;28;20062;-80
2024/03/11 12:56:51;;;;;;;4.35;1.20;;;;;;;;;;4965574;28;20070;-80
2024/03/11 12:59:17;;;;;;;3.88;1.20;;;;;;;;;;4968682;28;20031;-80
2024/03/11 13:01:42;;;;;;;2.53;1.05;;;;;;;;;;4954934;28;20220;-81
2024/03/11 13:04:19;;;;;;;2.08;1.05;;;;;;;;;;5007768;28;20022;-80
2024/03/11 13:06:44;;;;;;;2.22;0.90;;;;;;;;;;4975647;28;20034;-79
2024/03/11 13:09:24;;;;;;;1.77;0.90;;;;;;;;;;4965114;28;20046;-80
2024/03/11 13:12:01;;;;;;;1.92;0.85;;;;;;;;;;4995839;28;20562;-80
2024/03/11 13:14:30;;;;;;;1.65;0.90;;;;;;;;;;4984436;28;20030;-81
2024/03/11 13:16:56;;;;;;;2.42;1.10;;;;;;;;;;4986088;28;20100;-80
2024/03/11 13:19:25;;;;;;;2.85;1.00;;;;;;;;;;4992606;28;20010;-81
2024/03/11 13:21:51;;;;;;;;;;;;;;;;;;5021523;28;20045;-79
2024/03/11 13:24:18;;;;;;;3.35;1.20;;;;;;;;;;4998277;28;19898;-81
2024/03/11 13:26:44;;;;;;;2.58;1.15;;;;;;;;;;4996195;28;20038;-81
2024/03/11 13:29:10;;;;;;;9.90;1.23;;;;;;;;;;4998569;28;20045;-80
2024/03/11 13:31:37;;;;;;;4.18;1.00;;;;;;;;;;5005006;28;20046;-82
2024/03/11 13:34:04;;;;;;;2.05;1.10;;;;;;;;;;4995663;28;20042;-81
2024/03/11 13:36:30;;;;;;;2.95;1.77;;;;;;;;;;4973247;28;20093;-80
2024/03/11 13:38:56;;;;;;;2.80;1.05;;;;;;;;;;4984851;28;20062;-81
2024/03/11 13:41:21;;;;;;;3.30;1.10;;;;;;;;;;5000048;28;20026;-80
2024/03/11 13:43:48;;;;;;;3.13;1.20;;;;;;;;;;4985660;28;20045;-80
2024/03/11 13:46:13;;;;;;;5.22;1.30;;;;;;;;;;4982012;28;20034;-82
2024/03/11 13:48:42;;;;;;;2.90;1.13;;;;;;;;;;4983758;28;20089;-81
2024/03/11 13:51:08;;;;;;;;;;;;;;;;;;4986466;28;20390;-81
2024/03/11 13:53:34;;;;;;;2.50;1.10;;;;;;;;;;4990241;28;19913;-80
2024/03/11 13:56:04;;;;;;;5.50;1.10;;;;;;;;;;4963833;28;20030;-82
2024/03/11 13:58:30;;;;;;;3.75;1.17;;;;;;;;;;4984059;28;20397;-81
2024/03/11 14:00:56;;;;;;;4.18;1.52;;;;;;;;;;4973452;28;20027;-81
2024/03/11 14:03:22;;;;;;;3.85;1.20;;;;;;;;;;5002774;28;20032;-80
2024/03/11 14:05:49;;;;;;;2.78;1.10;;;;;;;;;;4981124;28;20117;-81
2024/03/11 14:08:18;;;;;;;2.38;1.02;;;;;;;;;;4990982;28;20054;-79
2024/03/11 14:10:48;;;;;;;2.05;0.90;;;;;;;;;;4966638;28;20038;-80
2024/03/11 14:13:14;;;;;;;3.05;1.38;;;;;;;;;;4974406;28;20067;-79
2024/03/11 14:15:42;;;;;;;2.50;1.30;;;;;;;;;;4987701;28;20104;-82
2024/03/11 14:18:09;;;;;;;2.67;1.23;;;;;;;;;;5001350;28;20041;-81
2024/03/11 14:20:35;;;;;;;4.28;1.10;;;;;;;;;;5010249;28;20026;-81
2024/03/11 14:23:01;;;;;;;3.13;1.30;;;;;;;;;;5014748;28;20061;-83
2024/03/11 14:25:30;;;;;;;3.13;1.10;;;;;;;;;;4963329;28;20445;-83
2024/03/11 14:27:58;;;;;;;2.60;1.00;;;;;;;;;;4973615;28;20120;-83
2024/03/11 14:30:24;;;;;;;2.78;1.10;;;;;;;;;;4981385;28;20041;-83
2024/03/11 14:32:50;;;;;;;3.33;1.45;;;;;;;;;;4987503;28;20038;-84
2024/03/11 14:35:17;;;;;;;2.58;1.10;;;;;;;;;;4975585;28;20117;-82
2024/03/11 14:37:43;;;;;;;1.55;0.80;;;;;;;;;;4969618;28;20114;-83
2024/03/11 14:40:12;;;;;;;2.63;1.00;;;;;;;;;;4990177;28;20034;-84
2024/03/11 14:42:39;;;;;;;2.00;1.10;;;;;;;;;;4988255;28;20030;-84